Novo Cruzeiro, Brazil
Current Conditions -  °F | °C
As of 2:00 PM on Friday 31 Oct 2014 (Local Time) from SBMK Reporting Station
Broken Clouds Broken Clouds  
Wind Chill: 84°   Ceiling: 4500
Heat Index: 84°   Visibility: 6mi
Dew Point: 59°   Wind: 9mph
Humidity: 42%   Direction: 40°NE
Pressure: 30"   Gusts: NA
Location:  17.48°S, 41.89°W
Report Text: SBMK 311600Z 04008KT 360V080 9999 BKN045 FEW050TCU 29/15 Q1016
Loading
Personal Weather Stations






























Interactive Weather Map
Tropical Storm Tracking
New forecast layout! Learn more

10-Day Weather Forecast

Advertisements
Track Severe Weather on mobile